Terminal Aerodrome Forecast
Issued by NWS Charleston, WV

Current Version | Previous Version | Text Only | Print | Product List | Glossary Off
Versions: 1 2 3 4 5 6 7 8 9 10 11 12 13 14 15 16 17 18 19 20 21 22 23 24 25

000
FTUS41 KRLX 161120
TAFHTS
TAF
KHTS 161120Z 1612/1712 33006KT P6SM SCT040
     FM161500 33007KT P6SM SCT250
     FM162300 00000KT P6SM SKC
     FM171000 00000KT 6SM BR SKC=

USA.gov is the U.S. government's official web portal to all federal, state and local government web resources and services.